createdAt,value
2023-03-03T00:01:35.962Z,2.30
2023-03-03T00:04:02.943Z,2.33
2023-03-03T00:06:30.585Z,2.50
2023-03-03T00:08:58.262Z,2.70
2023-03-03T00:11:25.073Z,2.57
2023-03-03T00:13:54.026Z,2.40
2023-03-03T00:16:29.139Z,2.23
2023-03-03T00:18:56.786Z,2.33
2023-03-03T00:21:33.546Z,2.30
2023-03-03T00:24:21.664Z,2.83
2023-03-03T00:26:55.670Z,2.40
2023-03-03T00:29:28.758Z,2.70
2023-03-03T00:31:59.594Z,2.47
2023-03-03T00:34:28.645Z,2.60
2023-03-03T00:36:57.281Z,2.40
2023-03-03T00:39:35.774Z,2.27
2023-03-03T00:42:12.505Z,2.40
2023-03-03T00:44:43.982Z,2.63
2023-03-03T00:47:37.717Z,2.73
2023-03-03T00:50:04.442Z,2.23
2023-03-03T00:52:33.434Z,2.37
2023-03-03T00:55:00.149Z,2.93
2023-03-03T00:57:26.932Z,2.30
2023-03-03T00:59:53.679Z,2.10
2023-03-03T01:02:20.533Z,2.47
2023-03-03T01:04:51.239Z,2.30
2023-03-03T01:07:18.994Z,2.23
2023-03-03T01:09:45.944Z,2.70
2023-03-03T01:12:13.106Z,3.00
2023-03-03T01:14:40.209Z,3.77
2023-03-03T01:17:07.219Z,3.07
2023-03-03T01:19:33.997Z,3.10
2023-03-03T01:22:01.850Z,3.27
2023-03-03T01:24:28.857Z,3.03
2023-03-03T01:26:56.225Z,3.53
2023-03-03T01:29:24.979Z,4.60
2023-03-03T01:31:51.901Z,3.07
2023-03-03T01:34:21.196Z,3.90
2023-03-03T01:36:48.141Z,4.20
2023-03-03T01:39:15.902Z,4.77
2023-03-03T01:41:42.730Z,5.00
2023-03-03T01:44:15.129Z,4.57
2023-03-03T01:47:16.753Z,4.00
2023-03-03T01:49:51.210Z,5.17
2023-03-03T01:52:36.120Z,4.53
2023-03-03T01:55:10.112Z,4.50
2023-03-03T01:57:44.121Z,4.73
2023-03-03T02:00:12.106Z,4.10
2023-03-03T02:02:40.027Z,4.50
2023-03-03T02:05:09.741Z,4.13
2023-03-03T02:07:37.813Z,4.73
2023-03-03T02:10:11.625Z,4.23
2023-03-03T02:12:42.843Z,4.07
2023-03-03T02:15:19.117Z,4.60
2023-03-03T02:17:46.930Z,3.77
2023-03-03T02:20:39.812Z,4.00
2023-03-03T02:23:25.120Z,4.37
2023-03-03T02:25:59.207Z,4.30
2023-03-03T02:28:31.818Z,4.20
2023-03-03T02:31:00.129Z,3.97
2023-03-03T02:33:28.303Z,5.10
2023-03-03T02:35:56.594Z,4.17
2023-03-03T02:38:54.239Z,4.73
2023-03-03T02:41:34.936Z,4.30
2023-03-03T02:44:10.551Z,4.03
2023-03-03T02:46:40.330Z,4.00
2023-03-03T02:49:08.875Z,5.30
2023-03-03T02:51:36.212Z,4.00
2023-03-03T02:54:03.554Z,3.53
2023-03-03T02:56:30.523Z,3.33
2023-03-03T02:58:57.524Z,4.07
2023-03-03T03:01:24.912Z,3.60
2023-03-03T03:03:51.882Z,3.83
2023-03-03T03:06:19.648Z,3.97
2023-03-03T03:08:46.585Z,3.30
2023-03-03T03:11:13.441Z,3.30
2023-03-03T03:13:40.285Z,3.77
2023-03-03T03:16:07.552Z,3.73
2023-03-03T03:18:34.341Z,3.50
2023-03-03T03:21:09.954Z,3.90
2023-03-03T03:23:36.838Z,3.73
2023-03-03T03:26:03.721Z,3.37
2023-03-03T03:28:31.153Z,3.70
2023-03-03T03:30:58.401Z,3.70
2023-03-03T03:33:28.230Z,4.50
2023-03-03T03:35:55.754Z,4.63
2023-03-03T03:38:23.658Z,4.37
2023-03-03T03:40:50.561Z,4.00
2023-03-03T03:43:17.503Z,4.10
2023-03-03T03:45:44.965Z,3.93
2023-03-03T03:48:12.194Z,3.90
2023-03-03T03:50:39.343Z,3.97
2023-03-03T03:53:07.552Z,3.93
2023-03-03T03:55:35.797Z,4.57
2023-03-03T03:58:02.902Z,4.10
2023-03-03T04:00:30.546Z,3.80
2023-03-03T04:02:58.653Z,4.10
2023-03-03T04:05:25.639Z,4.00
2023-03-03T04:07:52.394Z,4.33
2023-03-03T04:10:19.386Z,3.67
2023-03-03T04:12:46.137Z,3.37
2023-03-03T04:15:14.137Z,3.77
2023-03-03T04:17:42.707Z,3.73
2023-03-03T04:20:12.751Z,4.20
2023-03-03T04:22:39.565Z,4.10
2023-03-03T04:25:08.555Z,4.17
2023-03-03T04:27:36.675Z,4.00
2023-03-03T04:30:06.413Z,3.60
2023-03-03T04:32:35.972Z,3.80
2023-03-03T04:35:08.072Z,3.67
2023-03-03T04:37:35.875Z,3.60
2023-03-03T04:40:03.386Z,3.93
2023-03-03T04:42:31.757Z,4.30
2023-03-03T04:44:58.547Z,4.00
2023-03-03T04:47:25.429Z,4.33
2023-03-03T04:49:52.230Z,4.20
2023-03-03T04:52:19.096Z,4.33
2023-03-03T04:54:47.071Z,4.00
2023-03-03T04:57:15.146Z,4.30
2023-03-03T04:59:41.871Z,4.07
2023-03-03T05:02:08.678Z,3.97
2023-03-03T05:04:35.532Z,4.50
2023-03-03T05:07:02.465Z,4.23
2023-03-03T05:09:29.207Z,4.17
2023-03-03T05:11:56.190Z,4.50
2023-03-03T05:14:23.263Z,4.50
2023-03-03T05:16:50.134Z,4.40
2023-03-03T05:19:16.912Z,5.10
2023-03-03T05:21:44.210Z,4.87
2023-03-03T05:24:13.337Z,4.70
2023-03-03T05:26:40.901Z,4.30
2023-03-03T05:29:09.106Z,4.80
2023-03-03T05:31:36.305Z,4.70
2023-03-03T05:34:03.485Z,4.67
2023-03-03T05:36:30.370Z,4.63
2023-03-03T05:38:57.164Z,4.70
2023-03-03T05:41:24.174Z,4.00
2023-03-03T05:43:51.257Z,3.33
2023-03-03T05:46:18.069Z,4.40
2023-03-03T05:48:45.356Z,4.67
2023-03-03T05:51:12.232Z,3.67
2023-03-03T05:53:39.295Z,3.43
2023-03-03T05:56:06.493Z,3.93
2023-03-03T05:58:33.316Z,3.73
2023-03-03T06:01:00.117Z,4.30
2023-03-03T06:03:27.151Z,4.17
2023-03-03T06:05:54.068Z,4.30
2023-03-03T06:08:20.919Z,4.50
2023-03-03T06:10:47.946Z,4.80
2023-03-03T06:13:14.903Z,5.20
2023-03-03T06:15:41.752Z,3.80
2023-03-03T06:18:08.896Z,4.80
2023-03-03T06:20:35.796Z,3.77
2023-03-03T06:23:04.944Z,4.50
2023-03-03T06:25:31.995Z,4.47
2023-03-03T06:27:58.710Z,4.53
2023-03-03T06:30:27.035Z,4.13
2023-03-03T06:32:54.143Z,4.33
2023-03-03T06:35:21.031Z,3.63
2023-03-03T06:37:50.781Z,3.77
2023-03-03T06:40:17.759Z,3.80
2023-03-03T06:42:44.679Z,4.20
2023-03-03T06:45:11.929Z,3.50
2023-03-03T06:47:38.814Z,3.67
2023-03-03T06:50:06.300Z,3.57
2023-03-03T06:52:33.046Z,3.80
2023-03-03T06:55:09.807Z,4.07
2023-03-03T06:57:38.933Z,3.60
2023-03-03T07:00:20.342Z,3.13
2023-03-03T07:02:52.900Z,3.83
2023-03-03T07:05:19.672Z,3.47
2023-03-03T07:07:46.433Z,3.60
2023-03-03T07:10:22.074Z,3.60
2023-03-03T07:12:48.910Z,2.93
2023-03-03T07:15:33.300Z,3.00
2023-03-03T07:18:00.225Z,3.37
2023-03-03T07:20:38.715Z,2.97
2023-03-03T07:23:30.424Z,2.80
2023-03-03T07:25:57.286Z,3.03
2023-03-03T07:28:29.571Z,4.07
2023-03-03T07:30:58.103Z,2.93
2023-03-03T07:33:29.257Z,2.70
2023-03-03T07:35:58.724Z,2.90
2023-03-03T07:38:36.077Z,2.50
2023-03-03T07:41:05.824Z,2.83
2023-03-03T07:43:32.509Z,3.10
2023-03-03T07:46:25.284Z,2.80
2023-03-03T07:48:53.038Z,2.37
2023-03-03T07:51:28.087Z,3.50
2023-03-03T07:54:29.024Z,2.70
2023-03-03T07:57:11.593Z,3.17
2023-03-03T07:59:45.212Z,3.10
2023-03-03T08:02:30.856Z,3.00
2023-03-03T08:04:57.784Z,3.10
2023-03-03T08:07:24.603Z,2.90
2023-03-03T08:10:02.280Z,3.40
2023-03-03T08:12:31.684Z,3.40
2023-03-03T08:15:25.811Z,3.47
2023-03-03T08:17:54.928Z,3.50
2023-03-03T08:20:42.567Z,3.23
2023-03-03T08:23:09.567Z,3.33
2023-03-03T08:25:36.566Z,2.97
2023-03-03T08:28:03.450Z,4.07
2023-03-03T08:30:32.045Z,3.40
2023-03-03T08:33:00.789Z,3.40
2023-03-03T08:35:27.969Z,3.60
2023-03-03T08:37:54.811Z,3.60
2023-03-03T08:40:21.685Z,3.17
2023-03-03T08:42:48.988Z,2.87
2023-03-03T08:45:16.145Z,2.87
2023-03-03T08:47:44.922Z,3.13
2023-03-03T08:50:12.733Z,3.30
2023-03-03T08:52:39.614Z,2.97
2023-03-03T08:55:08.709Z,3.17
2023-03-03T08:57:35.818Z,3.80
2023-03-03T09:00:02.755Z,3.87
2023-03-03T09:02:29.481Z,4.37
2023-03-03T09:04:56.244Z,5.90
2023-03-03T09:07:23.186Z,5.77
2023-03-03T09:09:50.029Z,5.83
2023-03-03T09:12:22.653Z,6.03
2023-03-03T09:14:51.507Z,5.87
2023-03-03T09:17:38.715Z,5.27
2023-03-03T09:20:33.690Z,4.33
2023-03-03T09:23:36.333Z,4.40
2023-03-03T09:26:29.757Z,5.60
2023-03-03T09:29:15.021Z,5.53
2023-03-03T09:31:53.345Z,5.07
2023-03-03T09:34:24.701Z,5.07
2023-03-03T09:36:56.195Z,5.53
2023-03-03T09:39:25.763Z,7.77
2023-03-03T09:42:56.954Z,10.83
2023-03-03T09:45:54.467Z,10.13
2023-03-03T09:48:35.707Z,9.67
2023-03-03T09:51:12.137Z,8.33
2023-03-03T09:53:59.522Z,5.97
2023-03-03T09:56:39.605Z,5.77
2023-03-03T09:59:28.551Z,6.53
2023-03-03T10:02:31.270Z,6.63
2023-03-03T10:05:06.851Z,5.87
2023-03-03T10:08:10.166Z,6.63
2023-03-03T10:10:49.080Z,4.27
2023-03-03T10:13:38.727Z,5.33
2023-03-03T10:16:44.196Z,5.97
2023-03-03T10:19:37.291Z,6.87
2023-03-03T10:22:37.654Z,5.77
2023-03-03T10:25:29.161Z,5.67
2023-03-03T10:28:21.286Z,5.37
2023-03-03T10:31:28.255Z,5.33
2023-03-03T10:34:22.269Z,5.13
2023-03-03T10:37:13.647Z,5.23
2023-03-03T10:39:49.068Z,5.53
2023-03-03T10:42:38.316Z,6.53
2023-03-03T10:45:07.903Z,6.30
2023-03-03T10:47:50.118Z,5.67
2023-03-03T10:50:38.534Z,6.77
2023-03-03T10:53:16.044Z,6.80
2023-03-03T10:56:06.244Z,7.60
2023-03-03T10:58:54.320Z,7.40
2023-03-03T11:01:45.153Z,7.10
2023-03-03T11:04:24.215Z,6.13
2023-03-03T11:06:55.220Z,5.97
2023-03-03T11:09:52.638Z,6.53
2023-03-03T11:12:22.353Z,6.97
2023-03-03T11:15:05.865Z,5.27
2023-03-03T11:17:58.996Z,5.30
2023-03-03T11:20:51.318Z,5.40
2023-03-03T11:23:24.286Z,5.27
2023-03-03T11:26:21.961Z,4.50
2023-03-03T11:29:07.654Z,3.97
2023-03-03T11:31:48.259Z,3.70
2023-03-03T11:34:36.856Z,5.57
2023-03-03T11:37:32.943Z,7.27
2023-03-03T11:40:09.867Z,7.77
2023-03-03T11:42:47.418Z,7.57
2023-03-03T11:45:25.338Z,6.70
2023-03-03T11:48:19.874Z,5.37
2023-03-03T11:51:01.536Z,6.43
2023-03-03T11:53:59.293Z,6.07
2023-03-03T11:56:28.856Z,6.63
2023-03-03T11:59:12.009Z,6.23
2023-03-03T12:01:53.867Z,5.73
2023-03-03T12:04:26.314Z,6.07
2023-03-03T12:07:19.546Z,6.60
2023-03-03T12:09:55.232Z,6.87
2023-03-03T12:12:33.874Z,6.87
2023-03-03T12:15:19.134Z,6.50
2023-03-03T12:17:56.206Z,5.80
2023-03-03T12:20:24.236Z,4.47
2023-03-03T12:23:12.893Z,5.07
2023-03-03T12:26:00.004Z,5.57
2023-03-03T12:28:37.811Z,4.67
2023-03-03T12:31:24.859Z,5.47
2023-03-03T12:33:58.416Z,4.67
2023-03-03T12:37:17.599Z,4.70
2023-03-03T12:39:59.498Z,5.30
2023-03-03T12:42:38.708Z,5.93
2023-03-03T12:45:22.974Z,5.73
2023-03-03T12:47:54.122Z,5.10
2023-03-03T12:50:40.454Z,5.63
2023-03-03T12:53:13.102Z,5.83
2023-03-03T12:56:14.677Z,5.97
2023-03-03T12:58:50.335Z,5.13
2023-03-03T13:02:02.137Z,4.90
2023-03-03T13:04:35.992Z,4.70
2023-03-03T13:07:10.942Z,4.53
2023-03-03T13:09:56.406Z,5.03
2023-03-03T13:12:37.267Z,3.60
2023-03-03T13:15:32.743Z,2.27
2023-03-03T13:18:18.509Z,1.90
2023-03-03T13:20:57.200Z,1.60
2023-03-03T13:23:59.730Z,1.20
2023-03-03T13:26:40.618Z,0.90
2023-03-03T13:29:22.247Z,1.07
2023-03-03T13:32:03.222Z,1.10
2023-03-03T13:34:43.914Z,1.60
2023-03-03T13:37:21.344Z,2.13
2023-03-03T13:40:14.479Z,2.97
2023-03-03T13:43:02.766Z,5.47
2023-03-03T13:45:51.452Z,5.60
2023-03-03T13:48:37.008Z,6.57
2023-03-03T13:51:09.536Z,7.23
2023-03-03T13:53:55.210Z,6.67
2023-03-03T13:56:40.564Z,7.77
2023-03-03T13:59:37.410Z,8.13
2023-03-03T14:02:36.793Z,8.33
2023-03-03T14:05:27.096Z,4.50
2023-03-03T14:08:12.589Z,3.43
2023-03-03T14:10:54.951Z,3.30
2023-03-03T14:13:33.386Z,3.90
2023-03-03T14:16:34.308Z,4.40
2023-03-03T14:19:34.045Z,4.07
2023-03-03T14:22:25.819Z,3.53
2023-03-03T14:25:09.467Z,4.00
2023-03-03T14:27:40.406Z,3.83
2023-03-03T14:30:22.327Z,4.57
2023-03-03T14:33:07.402Z,2.87
2023-03-03T14:35:35.599Z,2.80
2023-03-03T14:38:31.756Z,1.73
2023-03-03T14:41:41.411Z,2.00
2023-03-03T14:44:45.220Z,2.17
2023-03-03T14:47:14.752Z,2.57
2023-03-03T14:49:41.771Z,3.23
2023-03-03T14:52:19.864Z,2.73
2023-03-03T14:54:49.196Z,2.80
2023-03-03T14:57:17.662Z,3.07
2023-03-03T15:00:27.634Z,2.03
2023-03-03T15:03:04.668Z,1.90
2023-03-03T15:05:32.968Z,2.43
2023-03-03T15:08:06.160Z,1.90
2023-03-03T15:10:35.009Z,1.50
2023-03-03T15:13:20.303Z,1.67
2023-03-03T15:16:00.881Z,1.70
2023-03-03T15:18:29.453Z,2.20
2023-03-03T15:21:15.658Z,2.20
2023-03-03T15:23:52.838Z,2.20
2023-03-03T15:26:37.085Z,2.17
2023-03-03T15:29:25.907Z,1.80
2023-03-03T15:32:21.422Z,2.80
2023-03-03T15:35:00.030Z,1.63
2023-03-03T15:37:43.703Z,1.63
2023-03-03T15:40:25.777Z,1.50
2023-03-03T15:43:20.643Z,1.70
2023-03-03T15:45:58.228Z,2.10
2023-03-03T15:48:44.859Z,2.27
2023-03-03T15:51:36.532Z,2.73
2023-03-03T15:54:15.929Z,2.03
2023-03-03T15:56:58.988Z,2.13
2023-03-03T15:59:34.220Z,1.60
2023-03-03T16:02:10.970Z,1.90
2023-03-03T16:04:45.088Z,2.07
2023-03-03T16:07:53.578Z,1.60
2023-03-03T16:10:34.577Z,1.67
2023-03-03T16:13:07.275Z,1.30
2023-03-03T16:15:55.416Z,1.30
2023-03-03T16:18:59.229Z,1.57
2023-03-03T16:21:55.521Z,1.30
2023-03-03T16:24:45.517Z,1.70
2023-03-03T16:27:18.551Z,1.43
2023-03-03T16:30:06.587Z,1.53
2023-03-03T16:32:41.605Z,1.20
2023-03-03T16:35:23.367Z,0.93
2023-03-03T16:38:05.099Z,1.90
2023-03-03T16:40:44.089Z,1.97
2023-03-03T16:43:19.831Z,1.90
2023-03-03T16:45:47.529Z,2.13
2023-03-03T16:48:26.210Z,1.80
2023-03-03T16:51:14.539Z,2.17
2023-03-03T16:54:10.075Z,1.57
2023-03-03T16:56:46.009Z,1.50
2023-03-03T16:59:40.250Z,1.70
2023-03-03T17:02:23.525Z,1.57
2023-03-03T17:05:14.154Z,1.20
2023-03-03T17:07:49.142Z,1.33
2023-03-03T17:10:33.839Z,1.33
2023-03-03T17:13:28.044Z,2.33
2023-03-03T17:16:20.828Z,2.83
2023-03-03T17:18:50.406Z,2.27
2023-03-03T17:21:38.696Z,2.53
2023-03-03T17:24:05.612Z,1.73
2023-03-03T17:26:58.172Z,4.30
2023-03-03T17:29:38.313Z,1.73
2023-03-03T17:32:24.644Z,2.97
2023-03-03T17:35:15.383Z,2.50
2023-03-03T17:37:59.062Z,3.17
2023-03-03T17:40:52.017Z,3.30
2023-03-03T17:43:31.416Z,3.10
2023-03-03T17:46:02.241Z,2.03
2023-03-03T17:48:39.284Z,2.10
2023-03-03T17:51:33.098Z,2.40
2023-03-03T17:54:38.459Z,2.50
2023-03-03T17:57:08.916Z,2.20
2023-03-03T18:00:06.360Z,2.43
2023-03-03T18:03:09.379Z,2.17
2023-03-03T18:06:00.838Z,2.53
2023-03-03T18:08:36.823Z,2.43
2023-03-03T18:11:57.844Z,2.70
2023-03-03T18:14:24.663Z,3.30
2023-03-03T18:17:13.364Z,2.63
2023-03-03T18:20:25.200Z,2.80
2023-03-03T18:22:55.915Z,3.60
2023-03-03T18:25:47.139Z,2.93
2023-03-03T18:28:21.064Z,3.07
2023-03-03T18:31:00.188Z,2.80
2023-03-03T18:33:57.483Z,3.57
2023-03-03T18:36:27.234Z,2.80
2023-03-03T18:39:00.445Z,3.77
2023-03-03T18:41:32.690Z,2.93
2023-03-03T18:44:23.262Z,2.93
2023-03-03T18:46:52.158Z,3.97
2023-03-03T18:49:39.235Z,4.80
2023-03-03T18:52:28.847Z,25.90
2023-03-03T18:55:09.772Z,5.10
2023-03-03T18:57:39.854Z,8.93
2023-03-03T19:00:23.609Z,5.10
2023-03-03T19:02:59.605Z,4.30
2023-03-03T19:05:36.159Z,4.83
2023-03-03T19:08:16.097Z,4.23
2023-03-03T19:10:55.492Z,4.00
2023-03-03T19:13:42.593Z,4.77
2023-03-03T19:16:30.636Z,4.40
2023-03-03T19:19:04.518Z,3.47
2023-03-03T19:21:36.695Z,9.43
2023-03-03T19:24:26.902Z,6.50
2023-03-03T19:27:15.506Z,4.00
2023-03-03T19:29:45.492Z,4.33
2023-03-03T19:32:30.874Z,3.03
2023-03-03T19:35:21.922Z,8.60
2023-03-03T19:38:06.967Z,3.03
2023-03-03T19:40:42.945Z,3.07
2023-03-03T19:43:16.031Z,4.70
2023-03-03T19:46:03.532Z,3.60
2023-03-03T19:48:48.682Z,3.80
2023-03-03T19:51:25.150Z,3.57
2023-03-03T19:54:06.610Z,6.50
2023-03-03T19:56:48.651Z,4.20
2023-03-03T19:59:24.494Z,5.00
2023-03-03T20:01:57.077Z,6.67
2023-03-03T20:05:07.487Z,4.33
2023-03-03T20:07:49.418Z,3.53
2023-03-03T20:10:28.201Z,3.97
2023-03-03T20:13:21.382Z,3.70
2023-03-03T20:16:15.656Z,3.57
2023-03-03T20:19:07.616Z,2.87
2023-03-03T20:21:58.678Z,2.77
2023-03-03T20:24:39.823Z,5.90
2023-03-03T20:27:20.004Z,11.70
2023-03-03T20:30:06.082Z,4.30
2023-03-03T20:32:45.312Z,4.90
2023-03-03T20:35:42.996Z,2.97
2023-03-03T20:38:23.449Z,9.30
2023-03-03T20:40:50.224Z,5.33
2023-03-03T20:43:56.736Z,11.00
2023-03-03T20:46:35.564Z,9.87
2023-03-03T20:49:19.414Z,4.90
2023-03-03T20:52:00.391Z,3.70
2023-03-03T20:54:42.510Z,6.33
2023-03-03T20:57:19.482Z,5.30
2023-03-03T21:00:03.237Z,4.00
2023-03-03T21:02:50.552Z,4.10
2023-03-03T21:05:22.446Z,4.27
2023-03-03T21:07:55.614Z,4.20
2023-03-03T21:10:26.856Z,3.90
2023-03-03T21:12:56.635Z,4.33
2023-03-03T21:15:30.502Z,3.87
2023-03-03T21:17:58.941Z,4.00
2023-03-03T21:20:34.767Z,2.83
2023-03-03T21:23:02.867Z,4.20
2023-03-03T21:25:42.794Z,3.53
2023-03-03T21:28:25.966Z,3.43
2023-03-03T21:31:09.671Z,2.40
2023-03-03T21:33:50.696Z,2.70
2023-03-03T21:36:44.693Z,3.03
2023-03-03T21:39:30.044Z,3.83
2023-03-03T21:42:05.829Z,3.87
2023-03-03T21:44:44.771Z,2.60
2023-03-03T21:47:17.065Z,2.90
2023-03-03T21:49:45.866Z,2.93
2023-03-03T21:52:16.428Z,2.47
2023-03-03T21:54:44.559Z,5.63
2023-03-03T21:57:11.490Z,3.00
2023-03-03T21:59:38.537Z,2.60
2023-03-03T22:02:05.972Z,3.13
2023-03-03T22:04:33.484Z,3.40
2023-03-03T22:07:01.313Z,2.80
2023-03-03T22:09:28.044Z,2.80
2023-03-03T22:11:54.764Z,2.83
2023-03-03T22:14:21.849Z,2.40
2023-03-03T22:16:48.621Z,2.23
2023-03-03T22:19:15.445Z,3.00
2023-03-03T22:21:42.330Z,3.00
2023-03-03T22:24:10.502Z,3.70
2023-03-03T22:26:39.899Z,4.30
2023-03-03T22:29:06.747Z,3.70
2023-03-03T22:31:33.796Z,4.50
2023-03-03T22:34:00.686Z,3.57
2023-03-03T22:36:27.456Z,5.33
2023-03-03T22:38:54.277Z,3.83
2023-03-03T22:41:21.361Z,2.90
2023-03-03T22:43:48.303Z,3.27
2023-03-03T22:46:15.134Z,3.20
2023-03-03T22:48:41.990Z,3.40
2023-03-03T22:51:08.848Z,3.83
2023-03-03T22:53:35.784Z,4.53
2023-03-03T22:56:02.827Z,4.07
2023-03-03T22:58:29.845Z,3.40
2023-03-03T23:00:57.136Z,3.77
2023-03-03T23:03:24.205Z,3.93
2023-03-03T23:05:52.035Z,2.90
2023-03-03T23:08:20.429Z,3.30
2023-03-03T23:10:47.861Z,3.10
2023-03-03T23:13:15.198Z,3.77
2023-03-03T23:15:42.133Z,5.43
2023-03-03T23:18:09.017Z,5.73
2023-03-03T23:20:36.621Z,6.10
2023-03-03T23:23:03.512Z,5.37
2023-03-03T23:25:30.355Z,4.60
2023-03-03T23:27:57.838Z,4.53
2023-03-03T23:30:25.029Z,4.30
2023-03-03T23:32:53.319Z,3.80
2023-03-03T23:35:21.199Z,3.73
2023-03-03T23:37:49.114Z,3.00
2023-03-03T23:40:16.376Z,3.03
2023-03-03T23:42:44.081Z,4.17
2023-03-03T23:45:12.408Z,4.00
2023-03-03T23:47:39.480Z,4.77
2023-03-03T23:50:07.141Z,3.80
2023-03-03T23:52:34.009Z,3.67
2023-03-03T23:55:01.223Z,3.20
2023-03-03T23:57:28.051Z,3.57
2023-03-03T23:59:54.893Z,3.33
